This is the latest recevied weather packets stored in our database for station/object EFHKFMI. If no packets are shown the sender has not sent any weather packets the latest 10 day(s).
| Time | Temp. | Humidity | Pressure | Rain* | Wind** | Luminosity | Snow |
|---|---|---|---|---|---|---|---|
| 1777907231 | 11.67° C | 75% | 1001.3 hPa | 0 mm | - | - | - |
| 1777906031 | 11.11° C | 77% | 1001.4 hPa | 0 mm | - | - | - |
| 1777904831 | 11.11° C | 81% | 1001.4 hPa | 0 mm | - | - | - |
| 1777903631 | 11.11° C | 82% | 1001.5 hPa | 0 mm | - | - | - |
| 1777902431 | 11.11° C | 83% | 1001.5 hPa | 0 mm | - | - | - |
| 1777901231 | 10.56° C | 85% | 1001.6 hPa | 0 mm | - | - | - |
| 1777900031 | 10° C | 87% | 1001.8 hPa | 0 mm | - | - | - |
| 1777898831 | 9.44° C | 90% | 1002.1 hPa | 1.52 mm | - | - | - |
| 1777897630 | 9.44° C | 90% | 1002.1 hPa | 1.52 mm | - | - | - |
| 1777896430 | 8.89° C | 90% | 1002.4 hPa | 1.52 mm | - | - | - |
| 1777895231 | 8.89° C | 88% | 1002.6 hPa | 1.02 mm | - | - | - |
| 1777894030 | 8.89° C | 91% | 1002.6 hPa | 1.02 mm | - | - | - |
| 1777892830 | 8.89° C | 88% | 1002.7 hPa | 1.02 mm | - | - | - |
| 1777891630 | 8.89° C | 80% | 1003 hPa | 0.51 mm | - | - | - |
| 1777890430 | 9.44° C | 77% | 1003.2 hPa | 0.51 mm | - | - | - |
| 1777889230 | 10° C | 77% | 1003.5 hPa | 0.51 mm | - | - | - |
| 1777888030 | 10.56° C | 71% | 1003.8 hPa | 0 mm | - | - | - |
| 1777886830 | 11.11° C | 63% | 1003.7 hPa | 0 mm | - | - | - |
| 1777885630 | 11.67° C | 56% | 1003.8 hPa | 0 mm | - | - | - |
| 1777884430 | 12.78° C | 45% | 1004 hPa | 0 mm | - | - | - |
| 1777883230 | 12.78° C | 44% | 1004 hPa | 0 mm | - | - | - |
| 1777882030 | 12.78° C | 45% | 1004 hPa | 0 mm | - | - | - |
| 1777880830 | 12.78° C | 43% | 1003.9 hPa | 0 mm | - | - | - |
| 1777879630 | 12.78° C | 42% | 1003.7 hPa | 0 mm | - | - | - |
| 1777878429 | 12.78° C | 40% | 1003.9 hPa | 0 mm | - | - | - |
* Rain latest hour (hover to see other rain measurements)
** Current wind speed in m/s (hover to see current wind gust speed)